sensor_id;sensor_type;location;lat;lon;timestamp;P1;durP1;ratioP1;P2;durP2;ratioP2
46078;SDS011;31820;51.880;-0.518;2022-09-03T00:00:17;1.90;;;1.40;;
46078;SDS011;31820;51.880;-0.518;2022-09-03T00:03:30;2.03;;;1.35;;
46078;SDS011;31820;51.880;-0.518;2022-09-03T00:11:02;1.90;;;1.40;;
46078;SDS011;31820;51.880;-0.518;2022-09-03T00:13:38;2.20;;;1.30;;
46078;SDS011;31820;51.880;-0.518;2022-09-03T00:16:08;2.08;;;1.45;;
46078;SDS011;31820;51.880;-0.518;2022-09-03T00:18:42;1.45;;;1.10;;
46078;SDS011;31820;51.880;-0.518;2022-09-03T00:21:11;1.90;;;1.33;;
46078;SDS011;31820;51.880;-0.518;2022-09-03T00:23:41;1.63;;;1.20;;
46078;SDS011;31820;51.880;-0.518;2022-09-03T00:28:40;1.65;;;1.33;;
46078;SDS011;31820;51.880;-0.518;2022-09-03T00:31:13;1.80;;;1.50;;
46078;SDS011;31820;51.880;-0.518;2022-09-03T00:33:43;2.03;;;1.38;;
46078;SDS011;31820;51.880;-0.518;2022-09-03T00:36:20;1.85;;;1.35;;
46078;SDS011;31820;51.880;-0.518;2022-09-03T00:38:52;1.67;;;1.33;;
46078;SDS011;31820;51.880;-0.518;2022-09-03T00:41:36;1.67;;;1.50;;
46078;SDS011;31820;51.880;-0.518;2022-09-03T00:46:45;1.98;;;1.40;;
46078;SDS011;31820;51.880;-0.518;2022-09-03T00:49:18;3.15;;;1.73;;
46078;SDS011;31820;51.880;-0.518;2022-09-03T00:52:11;2.35;;;1.50;;
46078;SDS011;31820;51.880;-0.518;2022-09-03T00:58:00;2.83;;;1.58;;
46078;SDS011;31820;51.880;-0.518;2022-09-03T01:00:28;2.10;;;1.75;;
46078;SDS011;31820;51.880;-0.518;2022-09-03T01:03:04;1.92;;;1.58;;
46078;SDS011;31820;51.880;-0.518;2022-09-03T01:10:54;2.75;;;1.48;;
46078;SDS011;31820;51.880;-0.518;2022-09-03T01:19:06;2.17;;;1.60;;
46078;SDS011;31820;51.880;-0.518;2022-09-03T01:21:47;1.85;;;1.40;;
46078;SDS011;31820;51.880;-0.518;2022-09-03T01:32:50;2.40;;;1.87;;
46078;SDS011;31820;51.880;-0.518;2022-09-03T01:40:48;2.03;;;1.52;;
46078;SDS011;31820;51.880;-0.518;2022-09-03T01:43:28;2.28;;;1.65;;
46078;SDS011;31820;51.880;-0.518;2022-09-03T01:46:22;2.13;;;1.60;;
46078;SDS011;31820;51.880;-0.518;2022-09-03T01:51:47;2.80;;;1.60;;
46078;SDS011;31820;51.880;-0.518;2022-09-03T01:54:25;2.28;;;1.67;;
46078;SDS011;31820;51.880;-0.518;2022-09-03T01:59:50;2.83;;;1.87;;
46078;SDS011;31820;51.880;-0.518;2022-09-03T02:02:25;2.53;;;1.70;;
46078;SDS011;31820;51.880;-0.518;2022-09-03T02:04:59;2.13;;;1.92;;
46078;SDS011;31820;51.880;-0.518;2022-09-03T02:07:40;2.42;;;1.75;;
46078;SDS011;31820;51.880;-0.518;2022-09-03T02:10:10;2.00;;;1.70;;
46078;SDS011;31820;51.880;-0.518;2022-09-03T02:12:38;2.63;;;1.80;;
46078;SDS011;31820;51.880;-0.518;2022-09-03T02:15:12;2.08;;;1.63;;
46078;SDS011;31820;51.880;-0.518;2022-09-03T02:17:40;2.08;;;1.70;;
46078;SDS011;31820;51.880;-0.518;2022-09-03T02:20:11;2.20;;;1.80;;
46078;SDS011;31820;51.880;-0.518;2022-09-03T02:22:44;2.00;;;1.60;;
46078;SDS011;31820;51.880;-0.518;2022-09-03T02:25:10;2.38;;;1.90;;
46078;SDS011;31820;51.880;-0.518;2022-09-03T02:27:39;2.60;;;1.90;;
46078;SDS011;31820;51.880;-0.518;2022-09-03T02:30:05;2.65;;;2.00;;
46078;SDS011;31820;51.880;-0.518;2022-09-03T02:32:32;2.10;;;1.80;;
46078;SDS011;31820;51.880;-0.518;2022-09-03T02:34:57;2.20;;;1.80;;
46078;SDS011;31820;51.880;-0.518;2022-09-03T02:37:23;3.28;;;1.92;;
46078;SDS011;31820;51.880;-0.518;2022-09-03T02:39:49;2.15;;;1.50;;
46078;SDS011;31820;51.880;-0.518;2022-09-03T02:42:16;1.95;;;1.50;;
46078;SDS011;31820;51.880;-0.518;2022-09-03T02:45:28;2.47;;;1.70;;
46078;SDS011;31820;51.880;-0.518;2022-09-03T02:47:40;2.35;;;1.80;;
46078;SDS011;31820;51.880;-0.518;2022-09-03T02:50:09;2.33;;;1.80;;
46078;SDS011;31820;51.880;-0.518;2022-09-03T02:52:35;2.28;;;1.90;;
46078;SDS011;31820;51.880;-0.518;2022-09-03T02:55:00;2.38;;;1.80;;
46078;SDS011;31820;51.880;-0.518;2022-09-03T02:57:26;2.50;;;2.00;;
46078;SDS011;31820;51.880;-0.518;2022-09-03T02:59:53;1.90;;;1.70;;
46078;SDS011;31820;51.880;-0.518;2022-09-03T03:02:18;2.08;;;1.60;;
46078;SDS011;31820;51.880;-0.518;2022-09-03T03:04:44;2.10;;;1.65;;
46078;SDS011;31820;51.880;-0.518;2022-09-03T03:07:09;2.28;;;1.80;;
46078;SDS011;31820;51.880;-0.518;2022-09-03T03:09:35;2.28;;;1.88;;
46078;SDS011;31820;51.880;-0.518;2022-09-03T03:12:00;2.50;;;1.85;;
46078;SDS011;31820;51.880;-0.518;2022-09-03T03:14:26;2.55;;;1.92;;
46078;SDS011;31820;51.880;-0.518;2022-09-03T03:16:51;2.38;;;1.60;;
46078;SDS011;31820;51.880;-0.518;2022-09-03T03:19:17;2.33;;;1.65;;
46078;SDS011;31820;51.880;-0.518;2022-09-03T03:21:42;2.20;;;1.75;;
46078;SDS011;31820;51.880;-0.518;2022-09-03T03:24:08;2.78;;;2.08;;
46078;SDS011;31820;51.880;-0.518;2022-09-03T03:26:34;2.38;;;1.85;;
46078;SDS011;31820;51.880;-0.518;2022-09-03T03:29:00;2.00;;;1.80;;
46078;SDS011;31820;51.880;-0.518;2022-09-03T03:31:28;2.60;;;2.00;;
46078;SDS011;31820;51.880;-0.518;2022-09-03T03:33:55;2.47;;;1.80;;
46078;SDS011;31820;51.880;-0.518;2022-09-03T03:36:23;2.63;;;1.92;;
46078;SDS011;31820;51.880;-0.518;2022-09-03T03:38:55;2.22;;;2.00;;
46078;SDS011;31820;51.880;-0.518;2022-09-03T03:41:25;2.05;;;1.73;;
46078;SDS011;31820;51.880;-0.518;2022-09-03T03:43:53;2.38;;;1.90;;
46078;SDS011;31820;51.880;-0.518;2022-09-03T03:46:20;2.28;;;2.00;;
46078;SDS011;31820;51.880;-0.518;2022-09-03T03:48:51;2.38;;;1.98;;
46078;SDS011;31820;51.880;-0.518;2022-09-03T03:51:17;2.40;;;2.00;;
46078;SDS011;31820;51.880;-0.518;2022-09-03T03:53:43;2.55;;;2.08;;
46078;SDS011;31820;51.880;-0.518;2022-09-03T03:56:10;2.30;;;2.00;;
46078;SDS011;31820;51.880;-0.518;2022-09-03T03:58:38;2.33;;;2.00;;
46078;SDS011;31820;51.880;-0.518;2022-09-03T04:01:07;2.58;;;2.03;;
46078;SDS011;31820;51.880;-0.518;2022-09-03T04:03:34;2.58;;;1.77;;
46078;SDS011;31820;51.880;-0.518;2022-09-03T04:06:00;2.75;;;1.70;;
46078;SDS011;31820;51.880;-0.518;2022-09-03T04:08:27;2.20;;;1.90;;
46078;SDS011;31820;51.880;-0.518;2022-09-03T04:10:53;3.10;;;2.05;;
46078;SDS011;31820;51.880;-0.518;2022-09-03T04:13:18;2.03;;;1.80;;
46078;SDS011;31820;51.880;-0.518;2022-09-03T04:15:44;3.15;;;2.42;;
46078;SDS011;31820;51.880;-0.518;2022-09-03T04:18:10;2.75;;;2.10;;
46078;SDS011;31820;51.880;-0.518;2022-09-03T04:20:36;2.22;;;1.88;;
46078;SDS011;31820;51.880;-0.518;2022-09-03T04:23:03;2.47;;;1.80;;
46078;SDS011;31820;51.880;-0.518;2022-09-03T04:25:30;2.22;;;1.85;;
46078;SDS011;31820;51.880;-0.518;2022-09-03T04:27:56;3.30;;;2.00;;
46078;SDS011;31820;51.880;-0.518;2022-09-03T04:30:22;2.35;;;2.00;;
46078;SDS011;31820;51.880;-0.518;2022-09-03T04:32:50;2.72;;;1.83;;
46078;SDS011;31820;51.880;-0.518;2022-09-03T04:35:20;1.95;;;1.65;;
46078;SDS011;31820;51.880;-0.518;2022-09-03T04:37:46;2.50;;;1.73;;
46078;SDS011;31820;51.880;-0.518;2022-09-03T04:40:12;2.28;;;1.70;;
46078;SDS011;31820;51.880;-0.518;2022-09-03T04:42:38;2.72;;;1.80;;
46078;SDS011;31820;51.880;-0.518;2022-09-03T04:45:04;2.63;;;1.98;;
46078;SDS011;31820;51.880;-0.518;2022-09-03T04:47:30;2.20;;;1.73;;
46078;SDS011;31820;51.880;-0.518;2022-09-03T04:49:56;2.53;;;2.17;;
46078;SDS011;31820;51.880;-0.518;2022-09-03T04:52:22;2.47;;;1.90;;
46078;SDS011;31820;51.880;-0.518;2022-09-03T04:54:48;2.25;;;1.95;;
46078;SDS011;31820;51.880;-0.518;2022-09-03T04:57:14;2.92;;;2.00;;
46078;SDS011;31820;51.880;-0.518;2022-09-03T04:59:39;2.35;;;1.80;;
46078;SDS011;31820;51.880;-0.518;2022-09-03T05:02:07;2.35;;;2.00;;
46078;SDS011;31820;51.880;-0.518;2022-09-03T05:04:34;2.03;;;1.70;;
46078;SDS011;31820;51.880;-0.518;2022-09-03T05:06:59;2.25;;;1.70;;
46078;SDS011;31820;51.880;-0.518;2022-09-03T05:09:25;2.10;;;1.90;;
46078;SDS011;31820;51.880;-0.518;2022-09-03T05:11:50;2.47;;;2.00;;
46078;SDS011;31820;51.880;-0.518;2022-09-03T05:14:16;2.45;;;1.77;;
46078;SDS011;31820;51.880;-0.518;2022-09-03T05:16:41;2.70;;;1.92;;
46078;SDS011;31820;51.880;-0.518;2022-09-03T05:19:07;2.25;;;1.88;;
46078;SDS011;31820;51.880;-0.518;2022-09-03T05:21:33;2.60;;;2.10;;
46078;SDS011;31820;51.880;-0.518;2022-09-03T05:24:02;2.10;;;1.75;;
46078;SDS011;31820;51.880;-0.518;2022-09-03T05:26:30;2.07;;;1.80;;
46078;SDS011;31820;51.880;-0.518;2022-09-03T05:28:58;2.65;;;1.98;;
46078;SDS011;31820;51.880;-0.518;2022-09-03T05:31:26;2.35;;;1.80;;
46078;SDS011;31820;51.880;-0.518;2022-09-03T05:33:55;2.60;;;2.08;;
46078;SDS011;31820;51.880;-0.518;2022-09-03T05:36:23;2.20;;;1.83;;
46078;SDS011;31820;51.880;-0.518;2022-09-03T05:38:50;2.35;;;1.90;;
46078;SDS011;31820;51.880;-0.518;2022-09-03T05:41:20;2.17;;;1.90;;
46078;SDS011;31820;51.880;-0.518;2022-09-03T05:43:50;1.92;;;1.60;;
46078;SDS011;31820;51.880;-0.518;2022-09-03T05:46:19;2.88;;;2.00;;
46078;SDS011;31820;51.880;-0.518;2022-09-03T05:48:45;2.50;;;2.00;;
46078;SDS011;31820;51.880;-0.518;2022-09-03T05:51:11;2.65;;;1.95;;
46078;SDS011;31820;51.880;-0.518;2022-09-03T05:53:42;2.20;;;2.00;;
46078;SDS011;31820;51.880;-0.518;2022-09-03T05:56:13;2.25;;;2.05;;
46078;SDS011;31820;51.880;-0.518;2022-09-03T05:58:52;2.90;;;1.90;;
46078;SDS011;31820;51.880;-0.518;2022-09-03T06:01:19;2.78;;;2.00;;
46078;SDS011;31820;51.880;-0.518;2022-09-03T06:03:51;2.42;;;1.92;;
46078;SDS011;31820;51.880;-0.518;2022-09-03T06:06:28;2.58;;;1.95;;
46078;SDS011;31820;51.880;-0.518;2022-09-03T06:08:56;2.20;;;1.63;;
46078;SDS011;31820;51.880;-0.518;2022-09-03T06:11:24;2.47;;;2.03;;
46078;SDS011;31820;51.880;-0.518;2022-09-03T06:13:57;3.17;;;1.95;;
46078;SDS011;31820;51.880;-0.518;2022-09-03T06:16:29;2.70;;;1.80;;
46078;SDS011;31820;51.880;-0.518;2022-09-03T06:18:55;2.13;;;1.70;;
46078;SDS011;31820;51.880;-0.518;2022-09-03T06:21:21;2.00;;;1.55;;
46078;SDS011;31820;51.880;-0.518;2022-09-03T06:23:50;2.63;;;1.80;;
46078;SDS011;31820;51.880;-0.518;2022-09-03T06:26:17;1.90;;;1.60;;
46078;SDS011;31820;51.880;-0.518;2022-09-03T06:28:44;2.50;;;1.80;;
46078;SDS011;31820;51.880;-0.518;2022-09-03T06:31:11;3.38;;;1.90;;
46078;SDS011;31820;51.880;-0.518;2022-09-03T06:33:38;2.20;;;1.80;;
46078;SDS011;31820;51.880;-0.518;2022-09-03T06:36:08;2.15;;;1.85;;
46078;SDS011;31820;51.880;-0.518;2022-09-03T06:38:35;2.25;;;1.85;;
46078;SDS011;31820;51.880;-0.518;2022-09-03T06:41:03;2.15;;;1.80;;
46078;SDS011;31820;51.880;-0.518;2022-09-03T06:43:31;2.08;;;1.77;;
46078;SDS011;31820;51.880;-0.518;2022-09-03T06:45:59;2.42;;;2.00;;
46078;SDS011;31820;51.880;-0.518;2022-09-03T06:48:26;2.22;;;2.00;;
46078;SDS011;31820;51.880;-0.518;2022-09-03T06:51:00;2.33;;;1.80;;
46078;SDS011;31820;51.880;-0.518;2022-09-03T06:53:28;2.75;;;2.00;;
46078;SDS011;31820;51.880;-0.518;2022-09-03T06:55:56;2.28;;;1.85;;
46078;SDS011;31820;51.880;-0.518;2022-09-03T06:58:23;2.63;;;1.90;;
46078;SDS011;31820;51.880;-0.518;2022-09-03T07:00:52;2.42;;;1.98;;
46078;SDS011;31820;51.880;-0.518;2022-09-03T07:03:18;1.80;;;1.60;;
46078;SDS011;31820;51.880;-0.518;2022-09-03T07:05:44;2.50;;;1.90;;
46078;SDS011;31820;51.880;-0.518;2022-09-03T07:08:10;2.50;;;1.75;;
46078;SDS011;31820;51.880;-0.518;2022-09-03T07:10:36;2.47;;;1.95;;
46078;SDS011;31820;51.880;-0.518;2022-09-03T07:13:02;2.33;;;1.85;;
46078;SDS011;31820;51.880;-0.518;2022-09-03T07:15:31;1.80;;;1.42;;
46078;SDS011;31820;51.880;-0.518;2022-09-03T07:17:57;2.53;;;1.92;;
46078;SDS011;31820;51.880;-0.518;2022-09-03T07:20:23;2.33;;;1.88;;
46078;SDS011;31820;51.880;-0.518;2022-09-03T07:22:49;2.78;;;2.20;;
46078;SDS011;31820;51.880;-0.518;2022-09-03T07:25:14;2.28;;;1.80;;
46078;SDS011;31820;51.880;-0.518;2022-09-03T07:27:40;1.98;;;1.50;;
46078;SDS011;31820;51.880;-0.518;2022-09-03T07:30:05;2.25;;;1.77;;
46078;SDS011;31820;51.880;-0.518;2022-09-03T07:32:33;2.20;;;1.63;;
46078;SDS011;31820;51.880;-0.518;2022-09-03T07:35:00;2.10;;;1.55;;
46078;SDS011;31820;51.880;-0.518;2022-09-03T07:37:26;2.38;;;1.85;;
46078;SDS011;31820;51.880;-0.518;2022-09-03T07:39:51;2.10;;;1.90;;
46078;SDS011;31820;51.880;-0.518;2022-09-03T07:42:18;1.95;;;1.58;;
46078;SDS011;31820;51.880;-0.518;2022-09-03T07:44:45;2.30;;;1.70;;
46078;SDS011;31820;51.880;-0.518;2022-09-03T07:47:10;2.80;;;2.00;;
46078;SDS011;31820;51.880;-0.518;2022-09-03T07:49:37;2.40;;;1.70;;
46078;SDS011;31820;51.880;-0.518;2022-09-03T07:52:02;2.00;;;1.70;;
46078;SDS011;31820;51.880;-0.518;2022-09-03T07:54:28;2.25;;;1.92;;
46078;SDS011;31820;51.880;-0.518;2022-09-03T07:56:54;2.42;;;1.85;;
46078;SDS011;31820;51.880;-0.518;2022-09-03T07:59:19;2.17;;;1.80;;
46078;SDS011;31820;51.880;-0.518;2022-09-03T08:01:47;1.70;;;1.45;;
46078;SDS011;31820;51.880;-0.518;2022-09-03T08:04:12;2.17;;;1.65;;
46078;SDS011;31820;51.880;-0.518;2022-09-03T08:06:38;1.48;;;1.33;;
46078;SDS011;31820;51.880;-0.518;2022-09-03T08:09:05;2.35;;;1.80;;
46078;SDS011;31820;51.880;-0.518;2022-09-03T08:11:34;2.63;;;1.90;;
46078;SDS011;31820;51.880;-0.518;2022-09-03T08:14:03;2.20;;;1.55;;
46078;SDS011;31820;51.880;-0.518;2022-09-03T08:16:31;2.20;;;1.83;;
46078;SDS011;31820;51.880;-0.518;2022-09-03T08:19:01;2.20;;;1.90;;
46078;SDS011;31820;51.880;-0.518;2022-09-03T08:21:27;2.75;;;1.73;;
46078;SDS011;31820;51.880;-0.518;2022-09-03T08:23:53;1.50;;;1.38;;
46078;SDS011;31820;51.880;-0.518;2022-09-03T08:26:27;1.67;;;1.50;;
46078;SDS011;31820;51.880;-0.518;2022-09-03T08:28:56;2.38;;;1.75;;
46078;SDS011;31820;51.880;-0.518;2022-09-03T08:31:22;2.15;;;1.70;;
46078;SDS011;31820;51.880;-0.518;2022-09-03T08:33:50;2.15;;;1.60;;
46078;SDS011;31820;51.880;-0.518;2022-09-03T08:38:47;2.20;;;1.63;;
46078;SDS011;31820;51.880;-0.518;2022-09-03T08:41:17;2.67;;;1.80;;
46078;SDS011;31820;51.880;-0.518;2022-09-03T08:46:57;1.70;;;1.35;;
46078;SDS011;31820;51.880;-0.518;2022-09-03T08:52:59;1.90;;;1.70;;
46078;SDS011;31820;51.880;-0.518;2022-09-03T08:55:49;1.80;;;1.52;;
46078;SDS011;31820;51.880;-0.518;2022-09-03T08:58:20;1.80;;;1.50;;
46078;SDS011;31820;51.880;-0.518;2022-09-03T09:00:53;2.03;;;1.38;;
46078;SDS011;31820;51.880;-0.518;2022-09-03T09:03:32;2.42;;;1.85;;
46078;SDS011;31820;51.880;-0.518;2022-09-03T09:22:53;1.85;;;1.50;;
46078;SDS011;31820;51.880;-0.518;2022-09-03T09:25:22;1.80;;;1.50;;
46078;SDS011;31820;51.880;-0.518;2022-09-03T09:30:20;2.10;;;1.45;;
46078;SDS011;31820;51.880;-0.518;2022-09-03T09:32:45;1.52;;;1.30;;
46078;SDS011;31820;51.880;-0.518;2022-09-03T09:35:12;1.88;;;1.48;;
46078;SDS011;31820;51.880;-0.518;2022-09-03T09:37:46;1.95;;;1.55;;
46078;SDS011;31820;51.880;-0.518;2022-09-03T09:42:51;1.90;;;1.40;;
46078;SDS011;31820;51.880;-0.518;2022-09-03T09:45:26;1.83;;;1.40;;
46078;SDS011;31820;51.880;-0.518;2022-09-03T09:47:53;1.73;;;1.25;;
46078;SDS011;31820;51.880;-0.518;2022-09-03T09:50:20;2.22;;;1.52;;
46078;SDS011;31820;51.880;-0.518;2022-09-03T09:52:47;1.70;;;1.48;;
46078;SDS011;31820;51.880;-0.518;2022-09-03T09:55:16;1.35;;;1.23;;
46078;SDS011;31820;51.880;-0.518;2022-09-03T09:57:44;1.48;;;1.00;;
46078;SDS011;31820;51.880;-0.518;2022-09-03T10:00:14;1.80;;;1.25;;
46078;SDS011;31820;51.880;-0.518;2022-09-03T10:02:59;1.85;;;1.40;;
46078;SDS011;31820;51.880;-0.518;2022-09-03T10:05:26;1.88;;;1.20;;
46078;SDS011;31820;51.880;-0.518;2022-09-03T10:10:25;1.83;;;1.30;;
46078;SDS011;31820;51.880;-0.518;2022-09-03T10:12:58;1.83;;;1.30;;
46078;SDS011;31820;51.880;-0.518;2022-09-03T10:15:32;1.50;;;1.30;;
46078;SDS011;31820;51.880;-0.518;2022-09-03T10:18:10;1.88;;;1.60;;
46078;SDS011;31820;51.880;-0.518;2022-09-03T10:28:55;1.60;;;1.33;;
46078;SDS011;31820;51.880;-0.518;2022-09-03T10:31:28;1.73;;;1.30;;
46078;SDS011;31820;51.880;-0.518;2022-09-03T10:34:13;1.63;;;1.20;;
46078;SDS011;31820;51.880;-0.518;2022-09-03T10:45:36;1.48;;;1.20;;
46078;SDS011;31820;51.880;-0.518;2022-09-03T10:48:15;1.40;;;1.20;;
46078;SDS011;31820;51.880;-0.518;2022-09-03T10:51:24;1.63;;;1.38;;
46078;SDS011;31820;51.880;-0.518;2022-09-03T10:54:01;1.40;;;1.10;;
46078;SDS011;31820;51.880;-0.518;2022-09-03T10:56:35;1.92;;;1.40;;
46078;SDS011;31820;51.880;-0.518;2022-09-03T10:59:09;1.45;;;1.23;;
46078;SDS011;31820;51.880;-0.518;2022-09-03T11:07:17;1.45;;;1.08;;
46078;SDS011;31820;51.880;-0.518;2022-09-03T11:09:57;1.65;;;1.23;;
46078;SDS011;31820;51.880;-0.518;2022-09-03T11:12:44;1.30;;;0.98;;
46078;SDS011;31820;51.880;-0.518;2022-09-03T11:17:43;1.50;;;1.23;;
46078;SDS011;31820;51.880;-0.518;2022-09-03T11:22:38;1.20;;;1.02;;
46078;SDS011;31820;51.880;-0.518;2022-09-03T11:25:06;1.30;;;1.20;;
46078;SDS011;31820;51.880;-0.518;2022-09-03T11:35:24;1.63;;;1.20;;
46078;SDS011;31820;51.880;-0.518;2022-09-03T11:37:56;1.80;;;1.38;;
46078;SDS011;31820;51.880;-0.518;2022-09-03T11:40:41;1.25;;;1.02;;
46078;SDS011;31820;51.880;-0.518;2022-09-03T11:48:38;1.52;;;1.10;;
46078;SDS011;31820;51.880;-0.518;2022-09-03T11:56:19;1.38;;;1.00;;
46078;SDS011;31820;51.880;-0.518;2022-09-03T11:58:45;1.15;;;0.98;;
46078;SDS011;31820;51.880;-0.518;2022-09-03T12:01:23;1.10;;;0.82;;
46078;SDS011;31820;51.880;-0.518;2022-09-03T12:03:53;1.55;;;1.20;;
46078;SDS011;31820;51.880;-0.518;2022-09-03T12:14:25;1.38;;;1.08;;
46078;SDS011;31820;51.880;-0.518;2022-09-03T12:16:59;1.10;;;0.88;;
46078;SDS011;31820;51.880;-0.518;2022-09-03T12:22:27;2.65;;;1.20;;
46078;SDS011;31820;51.880;-0.518;2022-09-03T12:24:54;1.55;;;1.10;;
46078;SDS011;31820;51.880;-0.518;2022-09-03T12:27:21;1.45;;;0.90;;
46078;SDS011;31820;51.880;-0.518;2022-09-03T12:29:49;1.58;;;1.20;;
46078;SDS011;31820;51.880;-0.518;2022-09-03T12:32:27;1.20;;;1.00;;
46078;SDS011;31820;51.880;-0.518;2022-09-03T12:34:56;1.25;;;1.00;;
46078;SDS011;31820;51.880;-0.518;2022-09-03T12:37:23;1.33;;;1.00;;
46078;SDS011;31820;51.880;-0.518;2022-09-03T12:39:53;1.30;;;1.10;;
46078;SDS011;31820;51.880;-0.518;2022-09-03T12:42:26;2.08;;;1.20;;
46078;SDS011;31820;51.880;-0.518;2022-09-03T12:44:54;1.50;;;1.10;;
46078;SDS011;31820;51.880;-0.518;2022-09-03T12:47:23;1.40;;;1.00;;
46078;SDS011;31820;51.880;-0.518;2022-09-03T12:49:50;1.98;;;0.88;;
46078;SDS011;31820;51.880;-0.518;2022-09-03T12:54:53;1.40;;;1.10;;
46078;SDS011;31820;51.880;-0.518;2022-09-03T12:57:26;1.30;;;1.10;;
46078;SDS011;31820;51.880;-0.518;2022-09-03T13:00:03;1.20;;;0.90;;
46078;SDS011;31820;51.880;-0.518;2022-09-03T13:02:38;1.20;;;0.80;;
46078;SDS011;31820;51.880;-0.518;2022-09-03T13:05:17;1.42;;;1.00;;
46078;SDS011;31820;51.880;-0.518;2022-09-03T13:07:45;1.08;;;0.88;;
46078;SDS011;31820;51.880;-0.518;2022-09-03T13:10:24;1.45;;;1.10;;
46078;SDS011;31820;51.880;-0.518;2022-09-03T13:12:57;0.98;;;0.88;;
46078;SDS011;31820;51.880;-0.518;2022-09-03T13:15:24;1.25;;;0.90;;
46078;SDS011;31820;51.880;-0.518;2022-09-03T13:31:30;1.02;;;0.80;;
46078;SDS011;31820;51.880;-0.518;2022-09-03T13:34:07;1.02;;;0.80;;
46078;SDS011;31820;51.880;-0.518;2022-09-03T13:39:56;1.30;;;1.10;;
46078;SDS011;31820;51.880;-0.518;2022-09-03T13:42:25;0.90;;;0.73;;
46078;SDS011;31820;51.880;-0.518;2022-09-03T13:47:43;0.98;;;0.88;;
46078;SDS011;31820;51.880;-0.518;2022-09-03T13:50:40;1.00;;;0.77;;
46078;SDS011;31820;51.880;-0.518;2022-09-03T13:53:13;1.00;;;0.80;;
46078;SDS011;31820;51.880;-0.518;2022-09-03T13:58:27;1.25;;;0.80;;
46078;SDS011;31820;51.880;-0.518;2022-09-03T14:06:25;1.27;;;0.90;;
46078;SDS011;31820;51.880;-0.518;2022-09-03T14:09:08;1.10;;;0.85;;
46078;SDS011;31820;51.880;-0.518;2022-09-03T14:17:35;1.10;;;0.90;;
46078;SDS011;31820;51.880;-0.518;2022-09-03T14:25:29;1.00;;;0.80;;
46078;SDS011;31820;51.880;-0.518;2022-09-03T14:28:23;1.13;;;0.82;;
46078;SDS011;31820;51.880;-0.518;2022-09-03T14:33:59;1.15;;;0.80;;
46078;SDS011;31820;51.880;-0.518;2022-09-03T14:42:12;0.98;;;0.80;;
46078;SDS011;31820;51.880;-0.518;2022-09-03T14:56:16;0.82;;;0.65;;
46078;SDS011;31820;51.880;-0.518;2022-09-03T15:01:52;1.00;;;0.82;;
46078;SDS011;31820;51.880;-0.518;2022-09-03T15:12:56;1.25;;;0.93;;
46078;SDS011;31820;51.880;-0.518;2022-09-03T15:15:31;1.35;;;1.10;;
46078;SDS011;31820;51.880;-0.518;2022-09-03T15:28:57;0.93;;;0.63;;
46078;SDS011;31820;51.880;-0.518;2022-09-03T15:37:13;0.98;;;0.80;;
46078;SDS011;31820;51.880;-0.518;2022-09-03T15:39:44;1.00;;;0.82;;
46078;SDS011;31820;51.880;-0.518;2022-09-03T15:44:41;0.95;;;0.80;;
46078;SDS011;31820;51.880;-0.518;2022-09-03T15:47:26;1.25;;;1.00;;
46078;SDS011;31820;51.880;-0.518;2022-09-03T15:55:38;0.88;;;0.70;;
46078;SDS011;31820;51.880;-0.518;2022-09-03T16:00:54;1.40;;;1.00;;
46078;SDS011;31820;51.880;-0.518;2022-09-03T16:06:16;1.00;;;0.85;;
46078;SDS011;31820;51.880;-0.518;2022-09-03T16:08:51;1.27;;;0.80;;
46078;SDS011;31820;51.880;-0.518;2022-09-03T16:11:34;1.08;;;0.82;;
46078;SDS011;31820;51.880;-0.518;2022-09-03T16:14:09;1.40;;;1.00;;
46078;SDS011;31820;51.880;-0.518;2022-09-03T16:16:47;1.13;;;0.83;;
46078;SDS011;31820;51.880;-0.518;2022-09-03T16:19:27;1.30;;;0.90;;
46078;SDS011;31820;51.880;-0.518;2022-09-03T16:23:09;1.23;;;0.80;;
46078;SDS011;31820;51.880;-0.518;2022-09-03T16:25:22;0.80;;;0.70;;
46078;SDS011;31820;51.880;-0.518;2022-09-03T16:28:07;1.00;;;0.77;;
46078;SDS011;31820;51.880;-0.518;2022-09-03T16:33:49;1.10;;;0.82;;
46078;SDS011;31820;51.880;-0.518;2022-09-03T16:36:31;1.00;;;0.90;;
46078;SDS011;31820;51.880;-0.518;2022-09-03T16:39:31;0.90;;;0.70;;
46078;SDS011;31820;51.880;-0.518;2022-09-03T16:42:33;0.80;;;0.70;;
46078;SDS011;31820;51.880;-0.518;2022-09-03T16:50:26;1.02;;;0.90;;
46078;SDS011;31820;51.880;-0.518;2022-09-03T17:09:57;0.98;;;0.80;;
46078;SDS011;31820;51.880;-0.518;2022-09-03T17:12:38;1.08;;;0.82;;
46078;SDS011;31820;51.880;-0.518;2022-09-03T17:26:16;1.00;;;0.80;;
46078;SDS011;31820;51.880;-0.518;2022-09-03T17:32:02;0.88;;;0.75;;
46078;SDS011;31820;51.880;-0.518;2022-09-03T17:45:50;0.80;;;0.70;;
46078;SDS011;31820;51.880;-0.518;2022-09-03T17:51:33;1.20;;;0.90;;
46078;SDS011;31820;51.880;-0.518;2022-09-03T17:56:42;0.93;;;0.80;;
46078;SDS011;31820;51.880;-0.518;2022-09-03T17:59:15;1.00;;;0.82;;
46078;SDS011;31820;51.880;-0.518;2022-09-03T18:01:57;0.88;;;0.70;;
46078;SDS011;31820;51.880;-0.518;2022-09-03T18:07:21;1.05;;;0.82;;
46078;SDS011;31820;51.880;-0.518;2022-09-03T18:09:58;0.88;;;0.68;;
46078;SDS011;31820;51.880;-0.518;2022-09-03T18:15:24;0.90;;;0.77;;
46078;SDS011;31820;51.880;-0.518;2022-09-03T18:17:58;0.85;;;0.70;;
46078;SDS011;31820;51.880;-0.518;2022-09-03T18:20:41;0.90;;;0.80;;
46078;SDS011;31820;51.880;-0.518;2022-09-03T18:23:33;1.10;;;1.00;;
46078;SDS011;31820;51.880;-0.518;2022-09-03T18:26:31;0.82;;;0.77;;
46078;SDS011;31820;51.880;-0.518;2022-09-03T18:29:36;1.10;;;0.90;;
46078;SDS011;31820;51.880;-0.518;2022-09-03T18:32:28;1.02;;;0.70;;
46078;SDS011;31820;51.880;-0.518;2022-09-03T18:35:13;0.90;;;0.68;;
46078;SDS011;31820;51.880;-0.518;2022-09-03T18:37:58;1.45;;;1.00;;
46078;SDS011;31820;51.880;-0.518;2022-09-03T18:40:46;1.00;;;0.70;;
46078;SDS011;31820;51.880;-0.518;2022-09-03T18:43:52;0.80;;;0.80;;
46078;SDS011;31820;51.880;-0.518;2022-09-03T18:52:58;0.80;;;0.70;;
46078;SDS011;31820;51.880;-0.518;2022-09-03T18:55:49;1.25;;;0.70;;
46078;SDS011;31820;51.880;-0.518;2022-09-03T19:05:45;0.70;;;0.68;;
46078;SDS011;31820;51.880;-0.518;2022-09-03T19:14:59;0.60;;;0.60;;
46078;SDS011;31820;51.880;-0.518;2022-09-03T19:17:57;1.13;;;0.90;;
46078;SDS011;31820;51.880;-0.518;2022-09-03T19:21:19;1.02;;;0.90;;
46078;SDS011;31820;51.880;-0.518;2022-09-03T19:24:12;1.42;;;1.05;;
46078;SDS011;31820;51.880;-0.518;2022-09-03T19:35:57;1.27;;;0.95;;
46078;SDS011;31820;51.880;-0.518;2022-09-03T19:38:56;1.20;;;0.95;;
46078;SDS011;31820;51.880;-0.518;2022-09-03T19:45:12;1.30;;;0.80;;
46078;SDS011;31820;51.880;-0.518;2022-09-03T19:51:18;1.40;;;1.20;;
46078;SDS011;31820;51.880;-0.518;2022-09-03T19:54:06;1.20;;;0.90;;
46078;SDS011;31820;51.880;-0.518;2022-09-03T19:56:53;1.05;;;0.82;;
46078;SDS011;31820;51.880;-0.518;2022-09-03T19:59:41;1.10;;;0.98;;
46078;SDS011;31820;51.880;-0.518;2022-09-03T20:02:30;0.98;;;0.88;;
46078;SDS011;31820;51.880;-0.518;2022-09-03T20:05:16;1.13;;;0.80;;
46078;SDS011;31820;51.880;-0.518;2022-09-03T20:08:02;0.90;;;0.73;;
46078;SDS011;31820;51.880;-0.518;2022-09-03T20:10:48;1.00;;;0.80;;
46078;SDS011;31820;51.880;-0.518;2022-09-03T20:13:18;1.38;;;0.90;;
46078;SDS011;31820;51.880;-0.518;2022-09-03T20:18:47;1.33;;;1.08;;
46078;SDS011;31820;51.880;-0.518;2022-09-03T20:30:02;1.20;;;1.10;;
46078;SDS011;31820;51.880;-0.518;2022-09-03T20:32:50;1.45;;;0.98;;
46078;SDS011;31820;51.880;-0.518;2022-09-03T20:35:36;1.40;;;0.90;;
46078;SDS011;31820;51.880;-0.518;2022-09-03T20:38:29;0.88;;;0.75;;
46078;SDS011;31820;51.880;-0.518;2022-09-03T20:46:21;1.40;;;1.00;;
46078;SDS011;31820;51.880;-0.518;2022-09-03T20:49:12;1.40;;;1.17;;
46078;SDS011;31820;51.880;-0.518;2022-09-03T20:52:00;1.35;;;1.00;;
46078;SDS011;31820;51.880;-0.518;2022-09-03T20:54:46;1.83;;;1.30;;
46078;SDS011;31820;51.880;-0.518;2022-09-03T21:05:44;1.63;;;1.25;;
46078;SDS011;31820;51.880;-0.518;2022-09-03T21:17:28;1.85;;;1.20;;